sensor_id;sensor_type;location;lat;lon;timestamp;temperature;humidity
11083;DHT22;5595;50.186;8.468;2022-10-16T00:01:56;14.90;99.90
11083;DHT22;5595;50.186;8.468;2022-10-16T00:04:23;14.90;99.90
11083;DHT22;5595;50.186;8.468;2022-10-16T00:06:50;14.90;99.90
11083;DHT22;5595;50.186;8.468;2022-10-16T00:09:16;14.90;99.90
11083;DHT22;5595;50.186;8.468;2022-10-16T00:11:43;14.90;99.90
11083;DHT22;5595;50.186;8.468;2022-10-16T00:14:13;14.90;99.90
11083;DHT22;5595;50.186;8.468;2022-10-16T00:16:42;14.90;99.90
11083;DHT22;5595;50.186;8.468;2022-10-16T00:19:10;14.90;99.90
11083;DHT22;5595;50.186;8.468;2022-10-16T00:21:37;14.90;99.90
11083;DHT22;5595;50.186;8.468;2022-10-16T00:24:06;14.90;99.90
11083;DHT22;5595;50.186;8.468;2022-10-16T00:26:34;14.90;99.90
11083;DHT22;5595;50.186;8.468;2022-10-16T00:29:02;14.90;99.90
11083;DHT22;5595;50.186;8.468;2022-10-16T00:31:29;14.90;99.90
11083;DHT22;5595;50.186;8.468;2022-10-16T00:33:57;14.90;99.90
11083;DHT22;5595;50.186;8.468;2022-10-16T00:36:26;14.90;99.90
11083;DHT22;5595;50.186;8.468;2022-10-16T00:38:54;14.90;99.90
11083;DHT22;5595;50.186;8.468;2022-10-16T00:41:23;14.90;99.90
11083;DHT22;5595;50.186;8.468;2022-10-16T00:43:51;14.80;99.90
11083;DHT22;5595;50.186;8.468;2022-10-16T00:46:20;14.80;99.90
11083;DHT22;5595;50.186;8.468;2022-10-16T00:48:51;14.80;99.90
11083;DHT22;5595;50.186;8.468;2022-10-16T00:51:24;14.80;99.90
11083;DHT22;5595;50.186;8.468;2022-10-16T00:53:52;14.90;99.90
11083;DHT22;5595;50.186;8.468;2022-10-16T00:56:19;14.90;99.90
11083;DHT22;5595;50.186;8.468;2022-10-16T00:58:46;14.90;99.90
11083;DHT22;5595;50.186;8.468;2022-10-16T01:01:13;14.90;99.90
11083;DHT22;5595;50.186;8.468;2022-10-16T01:03:40;14.90;99.90
11083;DHT22;5595;50.186;8.468;2022-10-16T01:06:21;14.90;99.90
11083;DHT22;5595;50.186;8.468;2022-10-16T01:09:02;14.90;99.90
11083;DHT22;5595;50.186;8.468;2022-10-16T01:11:35;14.90;99.90
11083;DHT22;5595;50.186;8.468;2022-10-16T01:14:11;14.90;99.90
11083;DHT22;5595;50.186;8.468;2022-10-16T01:16:43;14.90;99.90
11083;DHT22;5595;50.186;8.468;2022-10-16T01:19:17;14.90;99.90
11083;DHT22;5595;50.186;8.468;2022-10-16T01:21:49;14.90;99.90
11083;DHT22;5595;50.186;8.468;2022-10-16T01:24:27;14.90;99.90
11083;DHT22;5595;50.186;8.468;2022-10-16T01:27:07;14.90;99.90
11083;DHT22;5595;50.186;8.468;2022-10-16T01:29:36;14.90;99.90
11083;DHT22;5595;50.186;8.468;2022-10-16T01:32:12;14.90;99.90
11083;DHT22;5595;50.186;8.468;2022-10-16T01:34:47;14.90;99.90
11083;DHT22;5595;50.186;8.468;2022-10-16T01:37:18;14.90;99.90
11083;DHT22;5595;50.186;8.468;2022-10-16T01:39:48;14.90;99.90
11083;DHT22;5595;50.186;8.468;2022-10-16T01:42:21;14.90;99.90
11083;DHT22;5595;50.186;8.468;2022-10-16T01:44:50;14.90;99.90
11083;DHT22;5595;50.186;8.468;2022-10-16T01:47:21;14.90;99.90
11083;DHT22;5595;50.186;8.468;2022-10-16T01:49:49;14.90;99.90
11083;DHT22;5595;50.186;8.468;2022-10-16T01:52:21;14.90;99.90
11083;DHT22;5595;50.186;8.468;2022-10-16T01:54:50;15.00;99.90
11083;DHT22;5595;50.186;8.468;2022-10-16T01:57:21;15.00;99.90
11083;DHT22;5595;50.186;8.468;2022-10-16T01:59:51;14.90;99.90
11083;DHT22;5595;50.186;8.468;2022-10-16T02:02:22;14.90;99.90
11083;DHT22;5595;50.186;8.468;2022-10-16T02:04:56;14.90;99.90
11083;DHT22;5595;50.186;8.468;2022-10-16T02:07:25;14.90;99.90
11083;DHT22;5595;50.186;8.468;2022-10-16T02:09:51;14.80;99.90
11083;DHT22;5595;50.186;8.468;2022-10-16T02:12:25;14.80;99.90
11083;DHT22;5595;50.186;8.468;2022-10-16T02:14:53;14.90;99.90
11083;DHT22;5595;50.186;8.468;2022-10-16T02:17:20;14.90;99.90
11083;DHT22;5595;50.186;8.468;2022-10-16T02:19:49;14.90;99.90
11083;DHT22;5595;50.186;8.468;2022-10-16T02:22:22;14.80;99.90
11083;DHT22;5595;50.186;8.468;2022-10-16T02:24:54;14.90;99.90
11083;DHT22;5595;50.186;8.468;2022-10-16T02:27:28;14.90;99.90
11083;DHT22;5595;50.186;8.468;2022-10-16T02:30:02;14.90;99.90
11083;DHT22;5595;50.186;8.468;2022-10-16T02:32:34;14.90;99.90
11083;DHT22;5595;50.186;8.468;2022-10-16T02:35:01;14.80;99.90
11083;DHT22;5595;50.186;8.468;2022-10-16T02:37:29;14.80;99.90
11083;DHT22;5595;50.186;8.468;2022-10-16T02:39:58;14.90;99.90
11083;DHT22;5595;50.186;8.468;2022-10-16T02:42:32;14.90;99.90
11083;DHT22;5595;50.186;8.468;2022-10-16T02:45:00;14.90;99.90
11083;DHT22;5595;50.186;8.468;2022-10-16T02:47:27;14.90;99.90
11083;DHT22;5595;50.186;8.468;2022-10-16T02:49:53;14.90;99.90
11083;DHT22;5595;50.186;8.468;2022-10-16T02:52:20;14.90;99.90
11083;DHT22;5595;50.186;8.468;2022-10-16T02:54:47;14.90;99.90
11083;DHT22;5595;50.186;8.468;2022-10-16T02:57:14;14.90;99.90
11083;DHT22;5595;50.186;8.468;2022-10-16T02:59:42;14.90;99.90
11083;DHT22;5595;50.186;8.468;2022-10-16T03:02:10;14.90;99.90
11083;DHT22;5595;50.186;8.468;2022-10-16T03:04:37;14.80;99.90
11083;DHT22;5595;50.186;8.468;2022-10-16T03:07:04;14.90;99.90
11083;DHT22;5595;50.186;8.468;2022-10-16T03:09:31;14.80;99.90
11083;DHT22;5595;50.186;8.468;2022-10-16T03:11:58;14.80;99.90
11083;DHT22;5595;50.186;8.468;2022-10-16T03:14:24;14.80;99.90
11083;DHT22;5595;50.186;8.468;2022-10-16T03:16:53;14.80;99.90
11083;DHT22;5595;50.186;8.468;2022-10-16T03:19:19;14.80;99.90
11083;DHT22;5595;50.186;8.468;2022-10-16T03:21:46;14.80;99.90
11083;DHT22;5595;50.186;8.468;2022-10-16T03:24:13;14.80;99.90
11083;DHT22;5595;50.186;8.468;2022-10-16T03:26:40;14.80;99.90
11083;DHT22;5595;50.186;8.468;2022-10-16T03:29:07;14.80;99.90
11083;DHT22;5595;50.186;8.468;2022-10-16T03:31:34;14.80;99.90
11083;DHT22;5595;50.186;8.468;2022-10-16T03:34:02;14.80;99.90
11083;DHT22;5595;50.186;8.468;2022-10-16T03:36:29;14.80;99.90
11083;DHT22;5595;50.186;8.468;2022-10-16T03:38:56;14.80;99.90
11083;DHT22;5595;50.186;8.468;2022-10-16T03:41:23;14.80;99.90
11083;DHT22;5595;50.186;8.468;2022-10-16T03:43:50;14.70;99.90
11083;DHT22;5595;50.186;8.468;2022-10-16T03:46:17;14.70;99.90
11083;DHT22;5595;50.186;8.468;2022-10-16T03:48:44;14.70;99.90
11083;DHT22;5595;50.186;8.468;2022-10-16T03:51:12;14.70;99.90
11083;DHT22;5595;50.186;8.468;2022-10-16T03:53:39;14.70;99.90
11083;DHT22;5595;50.186;8.468;2022-10-16T03:56:06;14.70;99.90
11083;DHT22;5595;50.186;8.468;2022-10-16T03:58:33;14.70;99.90
11083;DHT22;5595;50.186;8.468;2022-10-16T04:01:00;14.70;99.90
11083;DHT22;5595;50.186;8.468;2022-10-16T04:03:26;14.70;99.90
11083;DHT22;5595;50.186;8.468;2022-10-16T04:05:53;14.70;99.90
11083;DHT22;5595;50.186;8.468;2022-10-16T04:08:22;14.70;99.90
11083;DHT22;5595;50.186;8.468;2022-10-16T04:10:49;14.60;99.90
11083;DHT22;5595;50.186;8.468;2022-10-16T04:13:16;14.70;99.90
11083;DHT22;5595;50.186;8.468;2022-10-16T04:15:44;14.60;99.90
11083;DHT22;5595;50.186;8.468;2022-10-16T04:18:11;14.60;99.90
11083;DHT22;5595;50.186;8.468;2022-10-16T04:20:38;14.60;99.90
11083;DHT22;5595;50.186;8.468;2022-10-16T04:23:05;14.60;99.90
11083;DHT22;5595;50.186;8.468;2022-10-16T04:25:33;14.60;99.90
11083;DHT22;5595;50.186;8.468;2022-10-16T04:28:00;14.60;99.90
11083;DHT22;5595;50.186;8.468;2022-10-16T04:30:26;14.60;99.90
11083;DHT22;5595;50.186;8.468;2022-10-16T04:32:53;14.60;99.90
11083;DHT22;5595;50.186;8.468;2022-10-16T04:35:21;14.60;99.90
11083;DHT22;5595;50.186;8.468;2022-10-16T04:37:48;14.60;99.90
11083;DHT22;5595;50.186;8.468;2022-10-16T04:40:16;14.60;99.90
11083;DHT22;5595;50.186;8.468;2022-10-16T04:42:44;14.60;99.90
11083;DHT22;5595;50.186;8.468;2022-10-16T04:45:11;14.60;99.90
11083;DHT22;5595;50.186;8.468;2022-10-16T04:47:38;14.70;99.90
11083;DHT22;5595;50.186;8.468;2022-10-16T04:50:05;14.70;99.90
11083;DHT22;5595;50.186;8.468;2022-10-16T04:52:32;14.70;99.90
11083;DHT22;5595;50.186;8.468;2022-10-16T04:54:59;14.70;99.90
11083;DHT22;5595;50.186;8.468;2022-10-16T04:57:28;14.70;99.90
11083;DHT22;5595;50.186;8.468;2022-10-16T04:59:56;14.70;99.90
11083;DHT22;5595;50.186;8.468;2022-10-16T05:02:23;14.70;99.90
11083;DHT22;5595;50.186;8.468;2022-10-16T05:04:50;14.70;99.90
11083;DHT22;5595;50.186;8.468;2022-10-16T05:07:17;14.70;99.90
11083;DHT22;5595;50.186;8.468;2022-10-16T05:09:44;14.70;99.90
11083;DHT22;5595;50.186;8.468;2022-10-16T05:12:12;14.70;99.90
11083;DHT22;5595;50.186;8.468;2022-10-16T05:14:41;14.70;99.90
11083;DHT22;5595;50.186;8.468;2022-10-16T05:17:12;14.70;99.90
11083;DHT22;5595;50.186;8.468;2022-10-16T05:19:39;14.70;99.90
11083;DHT22;5595;50.186;8.468;2022-10-16T05:22:07;14.60;99.90
11083;DHT22;5595;50.186;8.468;2022-10-16T05:24:36;14.60;99.90
11083;DHT22;5595;50.186;8.468;2022-10-16T05:27:03;14.60;99.90
11083;DHT22;5595;50.186;8.468;2022-10-16T05:29:31;14.60;99.90
11083;DHT22;5595;50.186;8.468;2022-10-16T05:31:59;14.60;99.90
11083;DHT22;5595;50.186;8.468;2022-10-16T05:34:27;14.60;99.90
11083;DHT22;5595;50.186;8.468;2022-10-16T05:36:55;14.60;99.90
11083;DHT22;5595;50.186;8.468;2022-10-16T05:39:22;14.60;99.90
11083;DHT22;5595;50.186;8.468;2022-10-16T05:41:52;14.60;99.90
11083;DHT22;5595;50.186;8.468;2022-10-16T05:44:19;14.60;99.90
11083;DHT22;5595;50.186;8.468;2022-10-16T05:46:49;14.60;99.90
11083;DHT22;5595;50.186;8.468;2022-10-16T05:49:17;14.60;99.90
11083;DHT22;5595;50.186;8.468;2022-10-16T05:51:49;14.60;99.90
11083;DHT22;5595;50.186;8.468;2022-10-16T05:54:17;14.60;99.90
11083;DHT22;5595;50.186;8.468;2022-10-16T05:56:50;14.60;99.90
11083;DHT22;5595;50.186;8.468;2022-10-16T05:59:19;14.60;99.90
11083;DHT22;5595;50.186;8.468;2022-10-16T06:01:47;14.70;99.90
11083;DHT22;5595;50.186;8.468;2022-10-16T06:04:14;14.70;99.90
11083;DHT22;5595;50.186;8.468;2022-10-16T06:06:42;14.70;99.90
11083;DHT22;5595;50.186;8.468;2022-10-16T06:09:11;14.70;99.90
11083;DHT22;5595;50.186;8.468;2022-10-16T06:11:38;14.70;99.90
11083;DHT22;5595;50.186;8.468;2022-10-16T06:14:05;14.70;99.90
11083;DHT22;5595;50.186;8.468;2022-10-16T06:16:33;14.70;99.90
11083;DHT22;5595;50.186;8.468;2022-10-16T06:19:26;14.70;99.90
11083;DHT22;5595;50.186;8.468;2022-10-16T06:22:02;14.70;99.90
11083;DHT22;5595;50.186;8.468;2022-10-16T06:24:31;14.70;99.90
11083;DHT22;5595;50.186;8.468;2022-10-16T06:26:58;14.70;99.90
11083;DHT22;5595;50.186;8.468;2022-10-16T06:29:25;14.70;99.90
11083;DHT22;5595;50.186;8.468;2022-10-16T06:31:52;14.70;99.90
11083;DHT22;5595;50.186;8.468;2022-10-16T06:34:19;14.60;99.90
11083;DHT22;5595;50.186;8.468;2022-10-16T06:36:46;14.70;99.90
11083;DHT22;5595;50.186;8.468;2022-10-16T06:39:13;14.70;99.90
11083;DHT22;5595;50.186;8.468;2022-10-16T06:41:41;14.80;99.90
11083;DHT22;5595;50.186;8.468;2022-10-16T06:44:08;14.80;99.90
11083;DHT22;5595;50.186;8.468;2022-10-16T06:46:35;14.80;99.90
11083;DHT22;5595;50.186;8.468;2022-10-16T06:49:02;14.80;99.90
11083;DHT22;5595;50.186;8.468;2022-10-16T06:51:29;14.80;99.90
11083;DHT22;5595;50.186;8.468;2022-10-16T06:53:57;14.80;99.90
11083;DHT22;5595;50.186;8.468;2022-10-16T06:56:26;14.90;99.90
11083;DHT22;5595;50.186;8.468;2022-10-16T06:59:02;14.90;99.90
11083;DHT22;5595;50.186;8.468;2022-10-16T07:01:29;14.90;99.90
11083;DHT22;5595;50.186;8.468;2022-10-16T07:03:56;14.90;99.90
11083;DHT22;5595;50.186;8.468;2022-10-16T07:06:25;14.90;99.90
11083;DHT22;5595;50.186;8.468;2022-10-16T07:08:52;15.00;99.90
11083;DHT22;5595;50.186;8.468;2022-10-16T07:11:22;15.00;99.90
11083;DHT22;5595;50.186;8.468;2022-10-16T07:13:50;15.00;99.90
11083;DHT22;5595;50.186;8.468;2022-10-16T07:16:23;15.00;99.90
11083;DHT22;5595;50.186;8.468;2022-10-16T07:18:50;15.00;99.90
11083;DHT22;5595;50.186;8.468;2022-10-16T07:21:23;15.10;99.90
11083;DHT22;5595;50.186;8.468;2022-10-16T07:23:51;15.10;99.90
11083;DHT22;5595;50.186;8.468;2022-10-16T07:26:19;15.10;99.90
11083;DHT22;5595;50.186;8.468;2022-10-16T07:28:46;15.10;99.90
11083;DHT22;5595;50.186;8.468;2022-10-16T07:31:14;15.10;99.90
11083;DHT22;5595;50.186;8.468;2022-10-16T07:33:43;15.20;99.90
11083;DHT22;5595;50.186;8.468;2022-10-16T07:36:11;15.30;99.90
11083;DHT22;5595;50.186;8.468;2022-10-16T07:38:38;15.30;99.90
11083;DHT22;5595;50.186;8.468;2022-10-16T07:41:06;15.30;99.90
11083;DHT22;5595;50.186;8.468;2022-10-16T07:43:34;15.40;99.90
11083;DHT22;5595;50.186;8.468;2022-10-16T07:46:01;15.40;99.90
11083;DHT22;5595;50.186;8.468;2022-10-16T07:48:30;15.40;99.90
11083;DHT22;5595;50.186;8.468;2022-10-16T07:51:00;15.40;99.90
11083;DHT22;5595;50.186;8.468;2022-10-16T07:53:28;15.40;99.90
11083;DHT22;5595;50.186;8.468;2022-10-16T07:55:59;15.50;99.90
11083;DHT22;5595;50.186;8.468;2022-10-16T07:58:27;15.50;99.90
11083;DHT22;5595;50.186;8.468;2022-10-16T08:00:55;15.50;99.90
11083;DHT22;5595;50.186;8.468;2022-10-16T08:03:23;15.50;99.90
11083;DHT22;5595;50.186;8.468;2022-10-16T08:05:50;15.50;99.90
11083;DHT22;5595;50.186;8.468;2022-10-16T08:08:19;15.60;99.90
11083;DHT22;5595;50.186;8.468;2022-10-16T08:10:46;15.60;99.90
11083;DHT22;5595;50.186;8.468;2022-10-16T08:13:13;15.60;99.90
11083;DHT22;5595;50.186;8.468;2022-10-16T08:15:40;15.70;99.90
11083;DHT22;5595;50.186;8.468;2022-10-16T08:18:09;15.60;99.90
11083;DHT22;5595;50.186;8.468;2022-10-16T08:20:36;15.60;99.90
11083;DHT22;5595;50.186;8.468;2022-10-16T08:23:03;15.60;99.90
11083;DHT22;5595;50.186;8.468;2022-10-16T08:25:33;15.70;99.90
11083;DHT22;5595;50.186;8.468;2022-10-16T08:28:03;15.70;99.90
11083;DHT22;5595;50.186;8.468;2022-10-16T08:30:30;15.80;99.90
11083;DHT22;5595;50.186;8.468;2022-10-16T08:32:58;15.90;99.90
11083;DHT22;5595;50.186;8.468;2022-10-16T08:35:25;15.90;99.90
11083;DHT22;5595;50.186;8.468;2022-10-16T08:37:52;15.90;99.90
11083;DHT22;5595;50.186;8.468;2022-10-16T08:40:21;16.00;99.90
11083;DHT22;5595;50.186;8.468;2022-10-16T08:43:08;16.00;99.90
11083;DHT22;5595;50.186;8.468;2022-10-16T08:45:47;16.10;99.90
11083;DHT22;5595;50.186;8.468;2022-10-16T08:48:20;16.00;99.90
11083;DHT22;5595;50.186;8.468;2022-10-16T08:50:51;16.00;99.90
11083;DHT22;5595;50.186;8.468;2022-10-16T08:53:24;16.00;99.90
11083;DHT22;5595;50.186;8.468;2022-10-16T08:55:53;16.10;99.90
11083;DHT22;5595;50.186;8.468;2022-10-16T08:58:25;16.10;99.90
11083;DHT22;5595;50.186;8.468;2022-10-16T09:00:58;16.10;99.90
11083;DHT22;5595;50.186;8.468;2022-10-16T09:03:36;16.10;99.90
11083;DHT22;5595;50.186;8.468;2022-10-16T09:06:19;16.10;99.90
11083;DHT22;5595;50.186;8.468;2022-10-16T09:09:07;16.10;99.90
11083;DHT22;5595;50.186;8.468;2022-10-16T09:11:45;16.10;99.90
11083;DHT22;5595;50.186;8.468;2022-10-16T09:14:38;16.20;99.90
11083;DHT22;5595;50.186;8.468;2022-10-16T09:17:20;16.20;99.90
11083;DHT22;5595;50.186;8.468;2022-10-16T09:19:56;16.30;99.90
11083;DHT22;5595;50.186;8.468;2022-10-16T09:22:28;16.40;99.90
11083;DHT22;5595;50.186;8.468;2022-10-16T09:25:00;16.60;99.90
11083;DHT22;5595;50.186;8.468;2022-10-16T09:27:27;16.80;99.90
11083;DHT22;5595;50.186;8.468;2022-10-16T09:29:55;16.90;99.90
11083;DHT22;5595;50.186;8.468;2022-10-16T09:32:23;17.00;99.90
11083;DHT22;5595;50.186;8.468;2022-10-16T09:34:53;16.90;99.90
11083;DHT22;5595;50.186;8.468;2022-10-16T09:37:24;16.80;99.90
11083;DHT22;5595;50.186;8.468;2022-10-16T09:39:53;16.80;99.90
11083;DHT22;5595;50.186;8.468;2022-10-16T09:42:23;16.80;99.90
11083;DHT22;5595;50.186;8.468;2022-10-16T09:44:52;16.90;99.90
11083;DHT22;5595;50.186;8.468;2022-10-16T09:47:25;17.00;99.90
11083;DHT22;5595;50.186;8.468;2022-10-16T09:49:54;17.20;99.90
11083;DHT22;5595;50.186;8.468;2022-10-16T09:52:23;17.30;99.90
11083;DHT22;5595;50.186;8.468;2022-10-16T09:54:51;17.50;99.90
11083;DHT22;5595;50.186;8.468;2022-10-16T09:57:22;17.50;99.90
11083;DHT22;5595;50.186;8.468;2022-10-16T09:59:52;17.60;99.90
11083;DHT22;5595;50.186;8.468;2022-10-16T10:02:26;17.60;99.90
11083;DHT22;5595;50.186;8.468;2022-10-16T10:04:55;17.70;99.90
11083;DHT22;5595;50.186;8.468;2022-10-16T10:07:26;17.70;99.90
11083;DHT22;5595;50.186;8.468;2022-10-16T10:09:56;17.80;99.90
11083;DHT22;5595;50.186;8.468;2022-10-16T10:12:25;18.00;99.90
11083;DHT22;5595;50.186;8.468;2022-10-16T10:14:56;18.10;99.90
11083;DHT22;5595;50.186;8.468;2022-10-16T10:17:26;18.20;99.90
11083;DHT22;5595;50.186;8.468;2022-10-16T10:19:55;18.30;99.90
11083;DHT22;5595;50.186;8.468;2022-10-16T10:22:30;18.40;99.90
11083;DHT22;5595;50.186;8.468;2022-10-16T10:25:00;18.60;99.90
11083;DHT22;5595;50.186;8.468;2022-10-16T10:27:37;18.60;99.90
11083;DHT22;5595;50.186;8.468;2022-10-16T10:30:15;18.80;99.90
11083;DHT22;5595;50.186;8.468;2022-10-16T10:32:52;18.90;99.90
11083;DHT22;5595;50.186;8.468;2022-10-16T10:35:25;18.90;99.90
11083;DHT22;5595;50.186;8.468;2022-10-16T10:38:02;19.00;99.90
11083;DHT22;5595;50.186;8.468;2022-10-16T10:40:45;19.00;99.90
11083;DHT22;5595;50.186;8.468;2022-10-16T10:43:29;19.10;99.90
11083;DHT22;5595;50.186;8.468;2022-10-16T10:46:04;19.00;99.90
11083;DHT22;5595;50.186;8.468;2022-10-16T10:48:58;18.90;99.90
11083;DHT22;5595;50.186;8.468;2022-10-16T10:51:35;19.10;99.90
11083;DHT22;5595;50.186;8.468;2022-10-16T10:54:14;19.40;99.90
11083;DHT22;5595;50.186;8.468;2022-10-16T10:56:47;19.70;99.90
11083;DHT22;5595;50.186;8.468;2022-10-16T10:59:37;19.90;99.90
11083;DHT22;5595;50.186;8.468;2022-10-16T11:02:15;20.10;99.90
11083;DHT22;5595;50.186;8.468;2022-10-16T11:07:59;19.60;99.90
11083;DHT22;5595;50.186;8.468;2022-10-16T11:10:33;19.50;99.90
11083;DHT22;5595;50.186;8.468;2022-10-16T11:13:11;19.50;99.90
11083;DHT22;5595;50.186;8.468;2022-10-16T11:15:42;19.60;99.90
11083;DHT22;5595;50.186;8.468;2022-10-16T11:18:15;19.80;99.90
11083;DHT22;5595;50.186;8.468;2022-10-16T11:20:47;19.90;99.90
11083;DHT22;5595;50.186;8.468;2022-10-16T11:23:23;20.00;99.90
11083;DHT22;5595;50.186;8.468;2022-10-16T11:25:53;20.10;99.90
11083;DHT22;5595;50.186;8.468;2022-10-16T11:28:25;20.10;99.90
11083;DHT22;5595;50.186;8.468;2022-10-16T11:30:57;20.00;99.90
11083;DHT22;5595;50.186;8.468;2022-10-16T11:33:29;19.90;99.90
11083;DHT22;5595;50.186;8.468;2022-10-16T11:36:03;19.70;99.90
11083;DHT22;5595;50.186;8.468;2022-10-16T11:38:37;19.50;99.90
11083;DHT22;5595;50.186;8.468;2022-10-16T11:41:15;19.30;99.90
11083;DHT22;5595;50.186;8.468;2022-10-16T11:43:51;19.20;99.90
11083;DHT22;5595;50.186;8.468;2022-10-16T11:46:21;19.10;99.90
11083;DHT22;5595;50.186;8.468;2022-10-16T11:48:54;19.00;99.90
11083;DHT22;5595;50.186;8.468;2022-10-16T11:51:30;18.90;99.90
11083;DHT22;5595;50.186;8.468;2022-10-16T11:54:04;18.70;99.90
11083;DHT22;5595;50.186;8.468;2022-10-16T11:56:36;18.70;99.90
11083;DHT22;5595;50.186;8.468;2022-10-16T11:59:07;18.50;99.90
11083;DHT22;5595;50.186;8.468;2022-10-16T12:01:41;18.40;99.90
11083;DHT22;5595;50.186;8.468;2022-10-16T12:04:19;18.40;99.90
11083;DHT22;5595;50.186;8.468;2022-10-16T12:06:51;18.40;99.90
11083;DHT22;5595;50.186;8.468;2022-10-16T12:09:26;18.50;99.90
11083;DHT22;5595;50.186;8.468;2022-10-16T12:11:53;18.70;99.90
11083;DHT22;5595;50.186;8.468;2022-10-16T12:14:34;18.70;99.90
11083;DHT22;5595;50.186;8.468;2022-10-16T12:17:03;18.80;99.90
11083;DHT22;5595;50.186;8.468;2022-10-16T12:19:32;18.70;99.90
11083;DHT22;5595;50.186;8.468;2022-10-16T12:22:01;18.70;99.90
11083;DHT22;5595;50.186;8.468;2022-10-16T12:24:34;18.90;99.90
11083;DHT22;5595;50.186;8.468;2022-10-16T12:27:03;19.00;99.90
11083;DHT22;5595;50.186;8.468;2022-10-16T12:29:34;19.00;99.90
11083;DHT22;5595;50.186;8.468;2022-10-16T12:32:03;19.10;99.90
11083;DHT22;5595;50.186;8.468;2022-10-16T12:34:38;19.40;99.90
11083;DHT22;5595;50.186;8.468;2022-10-16T12:37:12;19.50;99.90
11083;DHT22;5595;50.186;8.468;2022-10-16T12:39:49;19.50;99.90
11083;DHT22;5595;50.186;8.468;2022-10-16T12:42:34;19.50;99.90
11083;DHT22;5595;50.186;8.468;2022-10-16T12:45:02;19.30;99.90
11083;DHT22;5595;50.186;8.468;2022-10-16T12:47:48;19.30;99.90
11083;DHT22;5595;50.186;8.468;2022-10-16T12:50:28;19.80;99.90
11083;DHT22;5595;50.186;8.468;2022-10-16T12:52:56;20.10;99.90
11083;DHT22;5595;50.186;8.468;2022-10-16T12:55:26;20.30;99.90
11083;DHT22;5595;50.186;8.468;2022-10-16T12:58:11;20.40;99.90
11083;DHT22;5595;50.186;8.468;2022-10-16T13:00:44;20.60;99.90
11083;DHT22;5595;50.186;8.468;2022-10-16T13:03:39;20.70;99.90
11083;DHT22;5595;50.186;8.468;2022-10-16T13:06:22;20.80;99.90
11083;DHT22;5595;50.186;8.468;2022-10-16T13:12:13;20.30;99.90
11083;DHT22;5595;50.186;8.468;2022-10-16T13:15:07;20.10;99.90
11083;DHT22;5595;50.186;8.468;2022-10-16T13:17:53;20.10;99.90
11083;DHT22;5595;50.186;8.468;2022-10-16T13:20:34;20.00;99.90
11083;DHT22;5595;50.186;8.468;2022-10-16T13:23:09;19.80;99.90
11083;DHT22;5595;50.186;8.468;2022-10-16T13:25:49;19.70;99.90
11083;DHT22;5595;50.186;8.468;2022-10-16T13:28:27;19.60;99.90
11083;DHT22;5595;50.186;8.468;2022-10-16T13:30:57;19.40;99.90
11083;DHT22;5595;50.186;8.468;2022-10-16T13:33:29;19.30;99.90
11083;DHT22;5595;50.186;8.468;2022-10-16T13:35:57;19.10;99.90
11083;DHT22;5595;50.186;8.468;2022-10-16T13:38:29;19.10;99.90
11083;DHT22;5595;50.186;8.468;2022-10-16T13:40:58;19.20;99.90
11083;DHT22;5595;50.186;8.468;2022-10-16T13:43:31;19.20;99.90
11083;DHT22;5595;50.186;8.468;2022-10-16T13:46:01;19.10;99.90
11083;DHT22;5595;50.186;8.468;2022-10-16T13:48:29;19.00;99.90
11083;DHT22;5595;50.186;8.468;2022-10-16T13:51:05;19.10;99.90
11083;DHT22;5595;50.186;8.468;2022-10-16T13:53:35;19.20;99.90
11083;DHT22;5595;50.186;8.468;2022-10-16T13:56:04;19.20;99.90
11083;DHT22;5595;50.186;8.468;2022-10-16T13:58:34;19.20;99.90
11083;DHT22;5595;50.186;8.468;2022-10-16T14:01:02;19.10;99.90
11083;DHT22;5595;50.186;8.468;2022-10-16T14:03:32;19.10;99.90
11083;DHT22;5595;50.186;8.468;2022-10-16T14:06:02;19.10;99.90
11083;DHT22;5595;50.186;8.468;2022-10-16T14:08:30;19.00;99.90
11083;DHT22;5595;50.186;8.468;2022-10-16T14:10:59;18.90;99.90
11083;DHT22;5595;50.186;8.468;2022-10-16T14:13:31;18.90;99.90
11083;DHT22;5595;50.186;8.468;2022-10-16T14:16:04;18.90;99.90
11083;DHT22;5595;50.186;8.468;2022-10-16T14:18:34;18.90;99.90
11083;DHT22;5595;50.186;8.468;2022-10-16T14:21:06;19.00;99.90
11083;DHT22;5595;50.186;8.468;2022-10-16T14:23:36;19.00;99.90
11083;DHT22;5595;50.186;8.468;2022-10-16T14:26:16;18.90;99.90
11083;DHT22;5595;50.186;8.468;2022-10-16T14:29:01;18.90;99.90
11083;DHT22;5595;50.186;8.468;2022-10-16T14:31:33;19.00;99.90
11083;DHT22;5595;50.186;8.468;2022-10-16T14:34:27;19.10;99.90
11083;DHT22;5595;50.186;8.468;2022-10-16T14:37:08;19.20;99.90
11083;DHT22;5595;50.186;8.468;2022-10-16T14:39:37;19.20;99.90
11083;DHT22;5595;50.186;8.468;2022-10-16T14:42:11;19.10;99.90
11083;DHT22;5595;50.186;8.468;2022-10-16T14:44:40;19.00;99.90
11083;DHT22;5595;50.186;8.468;2022-10-16T14:47:14;19.00;99.90
11083;DHT22;5595;50.186;8.468;2022-10-16T14:49:48;19.00;99.90
11083;DHT22;5595;50.186;8.468;2022-10-16T14:52:15;18.90;99.90
11083;DHT22;5595;50.186;8.468;2022-10-16T14:54:43;18.90;99.90
11083;DHT22;5595;50.186;8.468;2022-10-16T14:57:17;18.90;99.90
11083;DHT22;5595;50.186;8.468;2022-10-16T14:59:45;18.90;99.90
11083;DHT22;5595;50.186;8.468;2022-10-16T15:02:20;18.90;99.90
11083;DHT22;5595;50.186;8.468;2022-10-16T15:04:49;18.90;99.90
11083;DHT22;5595;50.186;8.468;2022-10-16T15:07:17;18.80;99.90
11083;DHT22;5595;50.186;8.468;2022-10-16T15:09:44;18.80;99.90
11083;DHT22;5595;50.186;8.468;2022-10-16T15:12:12;18.60;99.90
11083;DHT22;5595;50.186;8.468;2022-10-16T15:14:39;18.50;99.90
11083;DHT22;5595;50.186;8.468;2022-10-16T15:17:08;18.50;99.90
11083;DHT22;5595;50.186;8.468;2022-10-16T15:19:37;18.40;99.90
11083;DHT22;5595;50.186;8.468;2022-10-16T15:22:04;18.40;99.90
11083;DHT22;5595;50.186;8.468;2022-10-16T15:24:31;18.40;99.90
11083;DHT22;5595;50.186;8.468;2022-10-16T15:26:58;18.30;99.90
11083;DHT22;5595;50.186;8.468;2022-10-16T15:29:25;18.30;99.90
11083;DHT22;5595;50.186;8.468;2022-10-16T15:31:52;18.30;99.90
11083;DHT22;5595;50.186;8.468;2022-10-16T15:34:20;18.20;99.90
11083;DHT22;5595;50.186;8.468;2022-10-16T15:36:51;18.20;99.90
11083;DHT22;5595;50.186;8.468;2022-10-16T15:39:19;18.10;99.90
11083;DHT22;5595;50.186;8.468;2022-10-16T16:00:01;17.80;99.90
11083;DHT22;5595;50.186;8.468;2022-10-16T16:02:28;17.70;99.90
11083;DHT22;5595;50.186;8.468;2022-10-16T16:04:56;17.70;99.90
11083;DHT22;5595;50.186;8.468;2022-10-16T16:07:26;17.60;99.90
11083;DHT22;5595;50.186;8.468;2022-10-16T16:09:54;17.60;99.90
11083;DHT22;5595;50.186;8.468;2022-10-16T16:12:21;17.60;99.90
11083;DHT22;5595;50.186;8.468;2022-10-16T16:14:53;17.50;99.90
11083;DHT22;5595;50.186;8.468;2022-10-16T16:17:28;17.50;99.90
11083;DHT22;5595;50.186;8.468;2022-10-16T16:20:02;17.50;99.90
11083;DHT22;5595;50.186;8.468;2022-10-16T16:22:29;17.40;99.90
11083;DHT22;5595;50.186;8.468;2022-10-16T16:24:58;17.40;99.90
11083;DHT22;5595;50.186;8.468;2022-10-16T16:27:25;17.40;99.90
11083;DHT22;5595;50.186;8.468;2022-10-16T16:29:55;17.30;99.90
11083;DHT22;5595;50.186;8.468;2022-10-16T16:32:24;17.30;99.90